createdAt,value
2019-03-13T00:01:24.499Z,97.80
2019-03-13T00:03:54.183Z,97.90
2019-03-13T00:06:23.885Z,98.10
2019-03-13T00:08:53.530Z,98.00
2019-03-13T00:11:23.228Z,97.80
2019-03-13T00:13:55.735Z,97.80
2019-03-13T00:16:25.518Z,97.80
2019-03-13T00:18:58.090Z,97.90
2019-03-13T00:21:27.783Z,97.90
2019-03-13T00:23:57.471Z,97.90
2019-03-13T00:26:28.749Z,98.10
2019-03-13T00:28:58.484Z,97.80
2019-03-13T00:31:28.187Z,98.00
2019-03-13T00:33:57.879Z,97.80
2019-03-13T00:36:27.558Z,97.60
2019-03-13T00:38:57.283Z,97.40
2019-03-13T00:41:26.995Z,97.30
2019-03-13T00:43:56.634Z,97.20
2019-03-13T00:46:26.363Z,97.30
2019-03-13T00:48:56.095Z,97.40
2019-03-13T00:51:25.846Z,97.20
2019-03-13T00:53:55.476Z,97.00
2019-03-13T00:56:25.200Z,96.80
2019-03-13T00:58:54.898Z,97.00
2019-03-13T01:01:43.462Z,97.10
2019-03-13T01:04:28.299Z,97.00
2019-03-13T01:07:06.499Z,96.70
2019-03-13T01:09:36.182Z,96.70
2019-03-13T01:12:06.661Z,96.90
2019-03-13T01:14:36.462Z,96.70
2019-03-13T01:17:07.340Z,96.10
2019-03-13T01:19:37.068Z,96.30
2019-03-13T01:22:06.776Z,96.00
2019-03-13T01:24:36.438Z,95.80
2019-03-13T01:27:06.065Z,95.40
2019-03-13T01:29:35.809Z,95.30
2019-03-13T01:32:23.956Z,95.20
2019-03-13T01:35:13.390Z,94.50
2019-03-13T01:37:43.083Z,94.20
2019-03-13T01:40:13.197Z,94.40
2019-03-13T01:42:42.845Z,94.00
2019-03-13T01:45:12.704Z,94.10
2019-03-13T01:47:42.369Z,94.60
2019-03-13T01:50:12.152Z,94.80
2019-03-13T01:52:41.789Z,94.80
2019-03-13T01:55:11.525Z,95.00
2019-03-13T01:57:42.379Z,94.90
2019-03-13T02:00:12.883Z,95.10
2019-03-13T02:02:45.880Z,95.10
2019-03-13T02:05:15.638Z,95.20
2019-03-13T02:07:45.309Z,95.20
2019-03-13T02:10:15.368Z,94.90
2019-03-13T02:12:44.973Z,95.00
2019-03-13T02:15:16.465Z,95.10
2019-03-13T02:17:46.078Z,95.30
2019-03-13T02:20:15.760Z,95.40
2019-03-13T02:22:45.331Z,95.50
2019-03-13T02:25:15.946Z,95.20
2019-03-13T02:27:45.505Z,95.00
2019-03-13T02:30:15.315Z,95.10
2019-03-13T02:32:44.934Z,95.20
2019-03-13T02:35:14.529Z,95.10
2019-03-13T02:37:44.211Z,95.10
2019-03-13T02:40:13.987Z,95.20
2019-03-13T02:42:43.648Z,94.70
2019-03-13T02:45:13.589Z,94.80
2019-03-13T02:47:43.411Z,94.90
2019-03-13T02:50:13.213Z,95.20
2019-03-13T02:52:42.787Z,95.00
2019-03-13T02:55:12.561Z,94.70
2019-03-13T02:57:42.162Z,94.60
2019-03-13T03:00:12.708Z,94.20
2019-03-13T03:02:45.895Z,93.90
2019-03-13T03:05:15.486Z,93.80
2019-03-13T03:07:45.212Z,94.40
2019-03-13T03:10:15.130Z,94.40
2019-03-13T03:12:44.785Z,94.50
2019-03-13T03:15:16.560Z,94.50
2019-03-13T03:17:46.282Z,94.80
2019-03-13T03:20:17.643Z,94.80
2019-03-13T03:22:47.578Z,95.40
2019-03-13T03:25:17.824Z,95.10
2019-03-13T03:27:47.480Z,95.20
2019-03-13T03:30:19.853Z,95.30
2019-03-13T03:32:49.598Z,95.10
2019-03-13T03:35:19.276Z,95.30
2019-03-13T03:37:48.914Z,94.80
2019-03-13T03:40:22.623Z,94.60
2019-03-13T03:42:50.043Z,93.90
2019-03-13T03:45:19.691Z,93.60
2019-03-13T03:47:49.444Z,93.40
2019-03-13T03:50:19.070Z,93.60
2019-03-13T03:52:48.721Z,93.80
2019-03-13T03:55:18.486Z,93.80
2019-03-13T03:57:48.157Z,93.60
2019-03-13T04:00:17.898Z,93.70
2019-03-13T04:02:47.643Z,93.80
2019-03-13T04:05:17.372Z,93.90
2019-03-13T04:07:47.065Z,94.10
2019-03-13T04:10:16.631Z,93.80
2019-03-13T04:12:46.196Z,94.00
2019-03-13T04:15:16.301Z,94.10
2019-03-13T04:17:46.686Z,94.40
2019-03-13T04:20:16.248Z,94.50
2019-03-13T04:22:45.939Z,94.80
2019-03-13T04:25:30.221Z,94.60
2019-03-13T04:28:00.047Z,94.50
2019-03-13T04:30:29.668Z,94.30
2019-03-13T04:32:59.314Z,94.40
2019-03-13T04:35:28.930Z,94.10
2019-03-13T04:37:58.545Z,94.20
2019-03-13T04:40:28.121Z,94.20
2019-03-13T04:42:57.802Z,94.20
2019-03-13T04:45:27.464Z,94.10
2019-03-13T04:47:57.136Z,94.30
2019-03-13T04:50:26.761Z,94.20
2019-03-13T04:52:56.372Z,94.00
2019-03-13T04:55:26.043Z,94.30
2019-03-13T04:57:55.735Z,94.10
2019-03-13T05:00:25.494Z,93.70
2019-03-13T05:02:55.151Z,93.70
2019-03-13T05:05:54.641Z,93.70
2019-03-13T05:08:44.963Z,93.80
2019-03-13T05:11:10.796Z,94.10
2019-03-13T05:13:40.409Z,94.20
2019-03-13T05:16:10.341Z,94.40
2019-03-13T05:18:39.946Z,94.40
2019-03-13T05:21:09.520Z,94.30
2019-03-13T05:23:39.380Z,94.20
2019-03-13T05:26:11.297Z,94.30
2019-03-13T05:28:40.867Z,94.50
2019-03-13T05:31:10.899Z,94.70
2019-03-13T05:33:40.489Z,94.50
2019-03-13T05:36:10.237Z,94.40
2019-03-13T05:38:40.004Z,94.40
2019-03-13T05:41:09.690Z,94.20
2019-03-13T05:43:39.363Z,94.30
2019-03-13T05:46:09.051Z,94.60
2019-03-13T05:48:38.673Z,94.70
2019-03-13T05:51:08.399Z,95.10
2019-03-13T05:53:38.183Z,95.20
2019-03-13T05:56:08.444Z,95.90
2019-03-13T05:58:38.048Z,96.80
2019-03-13T06:01:07.762Z,97.70
2019-03-13T06:03:37.441Z,98.40
2019-03-13T06:06:07.180Z,97.90
2019-03-13T06:08:40.774Z,98.10
2019-03-13T06:11:10.492Z,98.00
2019-03-13T06:13:43.411Z,98.30
2019-03-13T06:16:13.201Z,98.80
2019-03-13T06:18:42.968Z,98.80
2019-03-13T06:21:12.573Z,99.20
2019-03-13T06:23:42.285Z,99.60
2019-03-13T06:26:14.625Z,99.80
2019-03-13T06:28:44.287Z,99.90
2019-03-13T06:31:13.981Z,99.90
2019-03-13T06:33:43.615Z,99.90
2019-03-13T06:36:13.217Z,99.90
2019-03-13T06:38:43.090Z,99.90
2019-03-13T06:41:12.732Z,99.90
2019-03-13T06:43:42.471Z,99.20
2019-03-13T06:46:37.567Z,99.60
2019-03-13T06:49:04.604Z,99.90
2019-03-13T06:51:34.186Z,99.90
2019-03-13T06:54:03.969Z,99.90
2019-03-13T06:56:33.623Z,99.90
2019-03-13T06:59:13.481Z,99.90
2019-03-13T07:02:14.360Z,99.90
2019-03-13T07:05:01.321Z,99.90
2019-03-13T07:07:37.721Z,99.90
2019-03-13T07:10:18.606Z,99.90
2019-03-13T07:13:07.146Z,99.90
2019-03-13T07:15:47.714Z,99.90
2019-03-13T07:18:35.136Z,99.90
2019-03-13T07:21:17.248Z,99.90
2019-03-13T07:24:20.837Z,99.90
2019-03-13T07:27:18.442Z,99.90
2019-03-13T07:30:13.062Z,99.90
2019-03-13T07:36:12.021Z,99.90
2019-03-13T07:39:00.594Z,99.90
2019-03-13T07:41:45.840Z,99.90
2019-03-13T07:44:46.676Z,99.90
2019-03-13T07:47:29.287Z,99.90
2019-03-13T07:50:07.420Z,99.90
2019-03-13T07:52:56.127Z,99.90
2019-03-13T07:55:43.145Z,99.90
2019-03-13T07:58:25.880Z,99.90
2019-03-13T08:01:13.204Z,99.90
2019-03-13T08:04:05.547Z,99.90
2019-03-13T08:07:12.802Z,99.90
2019-03-13T08:09:56.650Z,99.90
2019-03-13T08:13:03.321Z,99.60
2019-03-13T08:16:00.428Z,98.90
2019-03-13T08:18:47.652Z,99.20
2019-03-13T08:21:40.365Z,99.10
2019-03-13T08:24:37.249Z,98.80
2019-03-13T08:27:44.323Z,99.00
2019-03-13T08:30:38.217Z,99.10
2019-03-13T08:33:29.171Z,99.30
2019-03-13T08:36:36.094Z,99.40
2019-03-13T08:39:33.601Z,99.30
2019-03-13T08:42:26.840Z,98.60
2019-03-13T08:45:23.135Z,98.50
2019-03-13T08:48:20.048Z,98.30
2019-03-13T08:51:10.004Z,98.40
2019-03-13T08:54:04.448Z,97.60
2019-03-13T08:57:02.102Z,97.70
2019-03-13T09:00:17.984Z,97.80
2019-03-13T09:03:26.110Z,98.20
2019-03-13T09:06:14.188Z,98.10
2019-03-13T09:09:05.604Z,98.10
2019-03-13T09:11:54.050Z,97.20
2019-03-13T09:14:42.942Z,97.40
2019-03-13T09:17:18.072Z,97.10
2019-03-13T09:20:20.912Z,98.00
2019-03-13T09:23:33.724Z,97.60
2019-03-13T09:26:52.969Z,96.10
2019-03-13T09:33:20.756Z,95.40
2019-03-13T09:36:15.677Z,94.60
2019-03-13T09:39:21.098Z,94.40
2019-03-13T09:42:08.650Z,94.60
2019-03-13T09:45:15.513Z,95.10
2019-03-13T09:48:00.549Z,94.40
2019-03-13T09:50:55.299Z,94.60
2019-03-13T09:53:32.383Z,93.70
2019-03-13T09:56:20.865Z,93.50
2019-03-13T09:59:24.930Z,91.70
2019-03-13T10:02:36.190Z,92.10
2019-03-13T10:05:26.663Z,92.50
2019-03-13T10:08:10.981Z,92.80
2019-03-13T10:11:01.791Z,92.30
2019-03-13T10:14:03.137Z,92.50
2019-03-13T10:16:54.081Z,92.10
2019-03-13T10:19:43.537Z,92.10
2019-03-13T10:22:47.562Z,92.10
2019-03-13T10:25:40.792Z,90.90
2019-03-13T10:28:35.803Z,90.30
2019-03-13T10:31:28.683Z,90.10
2019-03-13T10:34:23.485Z,89.20
2019-03-13T10:37:26.978Z,88.30
2019-03-13T10:40:48.295Z,88.30
2019-03-13T10:43:51.927Z,89.80
2019-03-13T10:46:55.010Z,90.00
2019-03-13T10:49:38.737Z,90.20
2019-03-13T10:52:15.811Z,89.70
2019-03-13T10:54:52.560Z,88.30
2019-03-13T10:58:00.299Z,86.50
2019-03-13T11:01:08.237Z,85.60
2019-03-13T11:03:59.431Z,85.40
2019-03-13T11:06:54.402Z,84.20
2019-03-13T11:09:41.625Z,85.30
2019-03-13T11:12:31.975Z,85.40
2019-03-13T11:15:28.689Z,87.40
2019-03-13T11:18:18.003Z,81.50
2019-03-13T11:21:28.406Z,79.10
2019-03-13T11:24:15.902Z,81.30
2019-03-13T11:27:18.786Z,80.30
2019-03-13T11:30:04.795Z,78.40
2019-03-13T11:32:54.452Z,79.60
2019-03-13T11:35:46.646Z,77.20
2019-03-13T11:39:02.819Z,79.80
2019-03-13T11:42:09.489Z,82.60
2019-03-13T11:44:53.505Z,80.00
2019-03-13T11:47:42.433Z,80.90
2019-03-13T11:50:22.707Z,81.10
2019-03-13T11:53:05.266Z,80.20
2019-03-13T11:56:00.342Z,78.80
2019-03-13T11:59:10.090Z,73.70
2019-03-13T12:01:46.351Z,75.50
2019-03-13T12:04:29.181Z,75.00
2019-03-13T12:07:24.808Z,75.00
2019-03-13T12:10:05.896Z,72.10
2019-03-13T12:12:46.107Z,73.30
2019-03-13T12:15:24.705Z,71.10
2019-03-13T12:18:19.595Z,71.60
2019-03-13T12:21:06.852Z,72.20
2019-03-13T12:23:52.641Z,73.20
2019-03-13T12:26:53.179Z,72.40
2019-03-13T12:29:54.004Z,69.00
2019-03-13T12:32:41.097Z,66.80
2019-03-13T12:35:41.632Z,65.20
2019-03-13T12:38:17.762Z,66.30
2019-03-13T12:41:02.779Z,67.40
2019-03-13T12:43:44.239Z,67.50
2019-03-13T12:46:42.003Z,62.00
2019-03-13T12:49:36.623Z,62.90
2019-03-13T12:52:34.090Z,63.40
2019-03-13T12:55:37.804Z,61.60
2019-03-13T12:58:26.281Z,63.80
2019-03-13T13:01:14.846Z,66.20
2019-03-13T13:03:57.300Z,66.50
2019-03-13T13:06:52.660Z,61.60
2019-03-13T13:09:40.785Z,59.80
2019-03-13T13:12:41.224Z,63.30
2019-03-13T13:15:29.989Z,63.80
2019-03-13T13:18:30.800Z,61.60
2019-03-13T13:21:00.457Z,61.70
2019-03-13T13:23:30.130Z,64.10
2019-03-13T13:26:00.649Z,61.90
2019-03-13T13:28:30.349Z,61.00
2019-03-13T13:31:00.074Z,60.70
2019-03-13T13:33:29.746Z,60.50
2019-03-13T13:35:59.492Z,62.60
2019-03-13T13:38:29.186Z,56.80
2019-03-13T13:40:58.795Z,60.10
2019-03-13T13:43:28.498Z,62.60
2019-03-13T13:46:05.728Z,59.60
2019-03-13T13:48:35.475Z,59.10
2019-03-13T13:51:05.287Z,59.00
2019-03-13T13:53:35.032Z,57.80
2019-03-13T13:56:04.778Z,58.50
2019-03-13T13:58:34.502Z,59.70
2019-03-13T14:01:05.409Z,60.60
2019-03-13T14:03:35.508Z,60.40
2019-03-13T14:06:46.742Z,61.50
2019-03-13T14:09:16.400Z,62.80
2019-03-13T14:11:46.156Z,64.10
2019-03-13T14:14:15.818Z,63.80
2019-03-13T14:16:45.581Z,62.10
2019-03-13T14:19:15.732Z,61.80
2019-03-13T14:21:45.403Z,62.30
2019-03-13T14:24:17.402Z,61.40
2019-03-13T14:26:46.313Z,64.90
2019-03-13T14:29:16.054Z,64.10
2019-03-13T14:31:46.176Z,65.20
2019-03-13T14:34:15.961Z,66.20
2019-03-13T14:36:45.701Z,66.70
2019-03-13T14:39:15.380Z,66.90
2019-03-13T14:41:45.032Z,69.00
2019-03-13T14:44:14.800Z,70.50
2019-03-13T14:46:44.487Z,68.40
2019-03-13T14:49:14.259Z,64.50
2019-03-13T14:51:43.885Z,63.60
2019-03-13T14:54:14.614Z,63.90
2019-03-13T14:56:48.508Z,60.80
2019-03-13T14:59:21.637Z,61.30
2019-03-13T15:01:51.889Z,63.50
2019-03-13T15:04:21.616Z,64.40
2019-03-13T15:06:51.267Z,64.60
2019-03-13T15:09:20.960Z,64.40
2019-03-13T15:11:50.570Z,67.40
2019-03-13T15:14:20.184Z,68.30
2019-03-13T15:16:53.134Z,69.30
2019-03-13T15:19:21.161Z,70.00
2019-03-13T15:21:50.821Z,70.20
2019-03-13T15:24:21.909Z,69.50
2019-03-13T15:26:51.495Z,69.80
2019-03-13T15:29:21.176Z,70.50
2019-03-13T15:31:50.859Z,71.80
2019-03-13T15:34:20.565Z,72.40
2019-03-13T15:36:50.368Z,72.40
2019-03-13T15:39:20.047Z,72.60
2019-03-13T15:41:49.654Z,72.00
2019-03-13T15:44:19.426Z,71.80
2019-03-13T15:46:49.137Z,71.30
2019-03-13T15:49:18.846Z,72.20
2019-03-13T15:51:48.597Z,73.10
2019-03-13T15:54:18.341Z,72.50
2019-03-13T15:56:48.089Z,73.10
2019-03-13T15:59:17.818Z,73.50
2019-03-13T16:01:47.554Z,74.00
2019-03-13T16:04:17.205Z,73.10
2019-03-13T16:06:46.885Z,72.80
2019-03-13T16:09:16.517Z,73.10
2019-03-13T16:11:58.155Z,72.70
2019-03-13T16:14:27.768Z,72.00
2019-03-13T16:16:59.396Z,74.00
2019-03-13T16:19:29.434Z,74.50
2019-03-13T16:21:59.088Z,75.30
2019-03-13T16:24:28.813Z,77.00
2019-03-13T16:26:58.465Z,77.30
2019-03-13T16:29:31.019Z,92.80
2019-03-13T16:32:00.814Z,75.10
2019-03-13T16:34:34.326Z,74.70
2019-03-13T16:37:04.680Z,75.50
2019-03-13T16:39:34.464Z,76.20
2019-03-13T16:42:07.334Z,77.00
2019-03-13T16:44:37.042Z,78.30
2019-03-13T16:47:06.922Z,78.40
2019-03-13T16:49:39.084Z,78.70
2019-03-13T16:52:08.105Z,79.40
2019-03-13T16:54:37.724Z,80.60
2019-03-13T16:57:07.399Z,81.40
2019-03-13T16:59:40.006Z,81.90
2019-03-13T17:02:09.829Z,83.90
2019-03-13T17:04:39.555Z,73.40
2019-03-13T17:07:09.282Z,71.70
2019-03-13T17:09:38.865Z,74.20
2019-03-13T17:12:08.619Z,76.20
2019-03-13T17:14:38.203Z,78.70
2019-03-13T17:17:07.757Z,79.80
2019-03-13T17:19:37.346Z,81.20
2019-03-13T17:22:06.997Z,81.60
2019-03-13T17:24:36.691Z,82.60
2019-03-13T17:27:06.434Z,80.70
2019-03-13T17:29:36.047Z,81.00
2019-03-13T17:32:05.795Z,82.50
2019-03-13T17:34:35.424Z,83.60
2019-03-13T17:37:05.123Z,84.20
2019-03-13T17:39:34.758Z,84.90
2019-03-13T17:42:04.411Z,86.00
2019-03-13T17:44:39.577Z,86.40
2019-03-13T17:47:09.287Z,86.90
2019-03-13T17:49:38.905Z,86.50
2019-03-13T17:52:09.616Z,87.30
2019-03-13T17:54:39.270Z,87.60
2019-03-13T17:57:08.913Z,88.10
2019-03-13T17:59:38.663Z,88.40
2019-03-13T18:02:08.685Z,88.50
2019-03-13T18:04:38.316Z,90.00
2019-03-13T18:07:07.968Z,90.70
2019-03-13T18:09:37.680Z,91.00
2019-03-13T18:12:07.393Z,91.50
2019-03-13T18:14:37.127Z,91.90
2019-03-13T18:17:06.793Z,92.10
2019-03-13T18:19:37.546Z,92.20
2019-03-13T18:22:07.239Z,92.30
2019-03-13T18:25:00.487Z,92.30
2019-03-13T18:27:32.089Z,92.20
2019-03-13T18:30:42.570Z,90.30
2019-03-13T18:33:14.788Z,90.70
2019-03-13T18:35:46.466Z,91.00
2019-03-13T18:38:15.912Z,91.60
2019-03-13T18:41:03.889Z,92.30
2019-03-13T18:43:33.686Z,92.40
2019-03-13T18:46:07.486Z,92.90
2019-03-13T18:48:34.797Z,93.30
2019-03-13T18:51:06.126Z,93.70
2019-03-13T18:53:36.342Z,93.90
2019-03-13T18:59:14.291Z,93.10
2019-03-13T19:01:48.849Z,91.90
2019-03-13T19:05:30.476Z,91.20
2019-03-13T19:11:48.831Z,90.60
2019-03-13T19:14:33.317Z,90.70
2019-03-13T19:20:23.996Z,90.90
2019-03-13T19:31:07.810Z,92.20
2019-03-13T19:37:40.712Z,93.30
2019-03-13T19:45:34.910Z,93.80
2019-03-13T20:08:00.317Z,94.40
2019-03-13T20:17:44.310Z,95.00
2019-03-13T20:20:13.130Z,95.40
2019-03-13T20:26:32.392Z,95.00
2019-03-13T20:30:23.715Z,94.40
2019-03-13T20:33:04.685Z,94.10
2019-03-13T20:37:25.138Z,94.10
2019-03-13T20:39:23.568Z,94.00
2019-03-13T20:42:21.034Z,94.00
2019-03-13T20:45:54.599Z,93.80
2019-03-13T20:52:10.086Z,92.80
2019-03-13T20:54:50.636Z,92.40
2019-03-13T20:57:37.296Z,92.10
2019-03-13T21:00:06.838Z,91.80
2019-03-13T21:02:41.356Z,92.00
2019-03-13T21:05:41.786Z,91.80
2019-03-13T21:08:25.104Z,91.80
2019-03-13T21:11:02.628Z,91.70
2019-03-13T21:13:40.020Z,91.80
2019-03-13T21:16:14.437Z,91.90
2019-03-13T21:18:59.883Z,91.60
2019-03-13T21:21:41.482Z,91.70
2019-03-13T21:24:18.996Z,91.90
2019-03-13T21:26:56.033Z,91.60
2019-03-13T21:33:31.219Z,91.50
2019-03-13T21:36:12.086Z,91.40
2019-03-13T21:38:59.677Z,91.10
2019-03-13T21:41:24.301Z,91.40
2019-03-13T21:44:42.077Z,91.30
2019-03-13T21:47:23.412Z,91.30
2019-03-13T21:49:57.614Z,91.30
2019-03-13T21:53:44.276Z,91.20
2019-03-13T22:05:06.055Z,90.90
2019-03-13T22:07:38.522Z,90.70
2019-03-13T22:10:09.580Z,91.20
2019-03-13T22:12:53.613Z,91.20
2019-03-13T22:15:42.689Z,91.20
2019-03-13T22:19:08.763Z,91.40
2019-03-13T22:21:40.349Z,91.30
2019-03-13T22:24:14.351Z,91.50
2019-03-13T22:34:18.795Z,92.00
2019-03-13T22:37:13.551Z,92.60
2019-03-13T22:39:49.712Z,92.80
2019-03-13T22:42:21.182Z,93.20
2019-03-13T22:45:01.824Z,93.50
2019-03-13T22:47:41.918Z,93.70
2019-03-13T22:50:03.157Z,93.90
2019-03-13T22:52:32.837Z,94.20
2019-03-13T22:55:02.591Z,94.50
2019-03-13T22:57:32.293Z,94.70
2019-03-13T23:00:02.025Z,95.00
2019-03-13T23:02:33.035Z,95.20
2019-03-13T23:05:13.533Z,95.30
2019-03-13T23:07:44.440Z,95.30
2019-03-13T23:10:37.215Z,95.50
2019-03-13T23:13:10.029Z,95.60
2019-03-13T23:15:46.647Z,95.70
2019-03-13T23:18:18.317Z,95.90
2019-03-13T23:20:47.670Z,96.00
2019-03-13T23:23:17.362Z,96.00
2019-03-13T23:25:47.299Z,96.20
2019-03-13T23:28:17.067Z,96.10
2019-03-13T23:30:46.772Z,96.00
2019-03-13T23:33:16.441Z,95.90
2019-03-13T23:35:46.326Z,96.00
2019-03-13T23:38:15.978Z,96.00
2019-03-13T23:40:45.611Z,96.10
2019-03-13T23:43:15.274Z,96.20
2019-03-13T23:45:45.030Z,96.20
2019-03-13T23:48:14.685Z,96.20
2019-03-13T23:50:44.554Z,96.20
2019-03-13T23:53:14.150Z,96.20
2019-03-13T23:55:43.756Z,96.10
2019-03-13T23:58:13.394Z,96.10
